sensor_id;sensor_type;location;lat;lon;timestamp;pressure;altitude;pressure_sealevel;temperature
24714;BMP280;12820;51.580;5.010;2022-07-29T00:00:29;101608.56;;;20.87
24714;BMP280;12820;51.580;5.010;2022-07-29T00:05:32;101607.94;;;20.82
24714;BMP280;12820;51.580;5.010;2022-07-29T00:10:34;101608.94;;;20.78
24714;BMP280;12820;51.580;5.010;2022-07-29T00:15:37;101603.28;;;20.72
24714;BMP280;12820;51.580;5.010;2022-07-29T00:20:39;101598.28;;;20.69
24714;BMP280;12820;51.580;5.010;2022-07-29T00:25:41;101596.75;;;20.65
24714;BMP280;12820;51.580;5.010;2022-07-29T00:30:43;101591.81;;;20.62
24714;BMP280;12820;51.580;5.010;2022-07-29T00:35:46;101587.63;;;20.60
24714;BMP280;12820;51.580;5.010;2022-07-29T00:40:49;101576.78;;;20.55
24714;BMP280;12820;51.580;5.010;2022-07-29T00:45:51;101573.53;;;20.51
24714;BMP280;12820;51.580;5.010;2022-07-29T00:50:54;101579.63;;;20.49
24714;BMP280;12820;51.580;5.010;2022-07-29T00:55:58;101574.63;;;20.46
24714;BMP280;12820;51.580;5.010;2022-07-29T01:01:00;101571.31;;;20.44
24714;BMP280;12820;51.580;5.010;2022-07-29T01:06:02;101569.66;;;20.43
24714;BMP280;12820;51.580;5.010;2022-07-29T01:11:05;101561.25;;;20.40
24714;BMP280;12820;51.580;5.010;2022-07-29T01:16:24;101562.28;;;20.36
24714;BMP280;12820;51.580;5.010;2022-07-29T01:21:44;101564.16;;;20.32
24714;BMP280;12820;51.580;5.010;2022-07-29T01:32:28;101553.53;;;20.22
24714;BMP280;12820;51.580;5.010;2022-07-29T01:37:43;101551.09;;;20.19
24714;BMP280;12820;51.580;5.010;2022-07-29T01:42:50;101548.66;;;20.16
24714;BMP280;12820;51.580;5.010;2022-07-29T01:48:05;101546.25;;;20.13
24714;BMP280;12820;51.580;5.010;2022-07-29T01:53:09;101556.59;;;20.10
24714;BMP280;12820;51.580;5.010;2022-07-29T01:58:13;101546.44;;;20.09
24714;BMP280;12820;51.580;5.010;2022-07-29T02:03:17;101538.97;;;20.04
24714;BMP280;12820;51.580;5.010;2022-07-29T02:08:21;101549.31;;;20.01
24714;BMP280;12820;51.580;5.010;2022-07-29T02:13:25;101557.97;;;19.97
24714;BMP280;12820;51.580;5.010;2022-07-29T02:18:30;101539.47;;;19.92
24714;BMP280;12820;51.580;5.010;2022-07-29T02:23:34;101532.91;;;19.87
24714;BMP280;12820;51.580;5.010;2022-07-29T02:28:54;101529.63;;;19.84
24714;BMP280;12820;51.580;5.010;2022-07-29T02:33:58;101528.94;;;19.80
24714;BMP280;12820;51.580;5.010;2022-07-29T02:39:02;101533.34;;;19.77
24714;BMP280;12820;51.580;5.010;2022-07-29T02:44:09;101529.22;;;19.73
24714;BMP280;12820;51.580;5.010;2022-07-29T02:54:34;101533.72;;;19.68
24714;BMP280;12820;51.580;5.010;2022-07-29T02:59:41;101535.59;;;19.63
24714;BMP280;12820;51.580;5.010;2022-07-29T03:04:46;101531.50;;;19.59
24714;BMP280;12820;51.580;5.010;2022-07-29T03:09:49;101532.50;;;19.56
24714;BMP280;12820;51.580;5.010;2022-07-29T03:14:52;101530.09;;;19.53
24714;BMP280;12820;51.580;5.010;2022-07-29T03:19:55;101524.31;;;19.48
24714;BMP280;12820;51.580;5.010;2022-07-29T03:24:57;101524.53;;;19.42
24714;BMP280;12820;51.580;5.010;2022-07-29T03:29:59;101533.19;;;19.38
24714;BMP280;12820;51.580;5.010;2022-07-29T03:35:02;101528.31;;;19.32
24714;BMP280;12820;51.580;5.010;2022-07-29T03:40:07;101529.50;;;19.24
24714;BMP280;12820;51.580;5.010;2022-07-29T03:45:14;101524.69;;;19.17
24714;BMP280;12820;51.580;5.010;2022-07-29T03:50:18;101524.94;;;19.11
24714;BMP280;12820;51.580;5.010;2022-07-29T03:55:21;101525.13;;;19.06
24714;BMP280;12820;51.580;5.010;2022-07-29T04:00:25;101527.94;;;18.99
24714;BMP280;12820;51.580;5.010;2022-07-29T04:05:28;101527.22;;;18.96
24714;BMP280;12820;51.580;5.010;2022-07-29T04:10:30;101531.59;;;18.92
24714;BMP280;12820;51.580;5.010;2022-07-29T04:15:36;101538.59;;;18.87
24714;BMP280;12820;51.580;5.010;2022-07-29T04:20:38;101533.63;;;18.83
24714;BMP280;12820;51.580;5.010;2022-07-29T04:25:41;101533.72;;;18.82
24714;BMP280;12820;51.580;5.010;2022-07-29T04:30:43;101533.75;;;18.80
24714;BMP280;12820;51.580;5.010;2022-07-29T04:35:46;101538.88;;;18.79
24714;BMP280;12820;51.580;5.010;2022-07-29T04:40:55;101539.81;;;18.78
24714;BMP280;12820;51.580;5.010;2022-07-29T04:45:57;101541.44;;;18.79
24714;BMP280;12820;51.580;5.010;2022-07-29T04:51:00;101543.09;;;18.80
24714;BMP280;12820;51.580;5.010;2022-07-29T04:56:02;101534.59;;;18.81
24714;BMP280;12820;51.580;5.010;2022-07-29T05:01:04;101532.81;;;18.83
24714;BMP280;12820;51.580;5.010;2022-07-29T05:06:07;101529.28;;;18.86
24714;BMP280;12820;51.580;5.010;2022-07-29T05:11:09;101538.47;;;18.90
24714;BMP280;12820;51.580;5.010;2022-07-29T05:16:14;101551.03;;;18.95
24714;BMP280;12820;51.580;5.010;2022-07-29T05:21:16;101561.06;;;18.99
24714;BMP280;12820;51.580;5.010;2022-07-29T05:26:18;101566.03;;;19.02
24714;BMP280;12820;51.580;5.010;2022-07-29T05:31:20;101565.97;;;19.03
24714;BMP280;12820;51.580;5.010;2022-07-29T05:36:22;101561.72;;;19.04
24714;BMP280;12820;51.580;5.010;2022-07-29T05:41:24;101581.97;;;19.07
24714;BMP280;12820;51.580;5.010;2022-07-29T05:46:27;101577.63;;;19.10
24714;BMP280;12820;51.580;5.010;2022-07-29T05:51:30;101592.75;;;19.15
24714;BMP280;12820;51.580;5.010;2022-07-29T05:56:32;101595.97;;;19.20
24714;BMP280;12820;51.580;5.010;2022-07-29T06:01:34;101598.28;;;19.25
24714;BMP280;12820;51.580;5.010;2022-07-29T06:06:47;101598.81;;;19.33
24714;BMP280;12820;51.580;5.010;2022-07-29T06:11:57;101592.72;;;19.37
24714;BMP280;12820;51.580;5.010;2022-07-29T06:17:16;101594.25;;;19.41
24714;BMP280;12820;51.580;5.010;2022-07-29T06:22:18;101594.16;;;19.44
24714;BMP280;12820;51.580;5.010;2022-07-29T06:27:20;101592.31;;;19.47
24714;BMP280;12820;51.580;5.010;2022-07-29T06:32:22;101594.69;;;19.53
24714;BMP280;12820;51.580;5.010;2022-07-29T06:37:28;101590.22;;;19.58
24714;BMP280;12820;51.580;5.010;2022-07-29T06:42:33;101594.31;;;19.62
24714;BMP280;12820;51.580;5.010;2022-07-29T06:47:35;101606.06;;;19.66
24714;BMP280;12820;51.580;5.010;2022-07-29T06:52:38;101607.59;;;19.70
24714;BMP280;12820;51.580;5.010;2022-07-29T06:57:40;101607.31;;;19.77
24714;BMP280;12820;51.580;5.010;2022-07-29T07:02:42;101603.56;;;19.85
24714;BMP280;12820;51.580;5.010;2022-07-29T07:07:45;101617.75;;;19.92
24714;BMP280;12820;51.580;5.010;2022-07-29T07:12:47;101620.03;;;19.98
24714;BMP280;12820;51.580;5.010;2022-07-29T07:17:49;101626.41;;;20.09
24714;BMP280;12820;51.580;5.010;2022-07-29T07:22:51;101619.78;;;20.25
24714;BMP280;12820;51.580;5.010;2022-07-29T07:27:53;101618.19;;;20.43
24714;BMP280;12820;51.580;5.010;2022-07-29T07:32:55;101629.69;;;20.53
24714;BMP280;12820;51.580;5.010;2022-07-29T07:37:57;101633.50;;;20.63
24714;BMP280;12820;51.580;5.010;2022-07-29T07:42:59;101632.22;;;20.72
24714;BMP280;12820;51.580;5.010;2022-07-29T07:48:01;101621.72;;;20.78
24714;BMP280;12820;51.580;5.010;2022-07-29T07:53:04;101618.22;;;20.81
24714;BMP280;12820;51.580;5.010;2022-07-29T07:58:06;101620.72;;;20.82
24714;BMP280;12820;51.580;5.010;2022-07-29T08:03:08;101614.78;;;20.82
24714;BMP280;12820;51.580;5.010;2022-07-29T08:08:18;101609.56;;;20.83
24714;BMP280;12820;51.580;5.010;2022-07-29T08:13:22;101612.03;;;20.86
24714;BMP280;12820;51.580;5.010;2022-07-29T08:18:24;101616.84;;;20.92
24714;BMP280;12820;51.580;5.010;2022-07-29T08:23:27;101612.44;;;20.95
24714;BMP280;12820;51.580;5.010;2022-07-29T08:28:49;101608.66;;;21.03
24714;BMP280;12820;51.580;5.010;2022-07-29T08:33:52;101607.38;;;21.13
24714;BMP280;12820;51.580;5.010;2022-07-29T08:38:54;101611.13;;;21.24
24714;BMP280;12820;51.580;5.010;2022-07-29T08:43:57;101618.28;;;21.35
24714;BMP280;12820;51.580;5.010;2022-07-29T08:48:59;101613.69;;;21.42
24714;BMP280;12820;51.580;5.010;2022-07-29T08:54:02;101618.22;;;21.54
24714;BMP280;12820;51.580;5.010;2022-07-29T08:59:05;101626.81;;;21.71
24714;BMP280;12820;51.580;5.010;2022-07-29T09:04:10;101624.84;;;21.94
24714;BMP280;12820;51.580;5.010;2022-07-29T09:09:13;101620.56;;;22.11
24714;BMP280;12820;51.580;5.010;2022-07-29T09:14:15;101629.84;;;22.30
24714;BMP280;12820;51.580;5.010;2022-07-29T09:19:32;101630.63;;;22.65
24714;BMP280;12820;51.580;5.010;2022-07-29T09:24:41;101623.41;;;23.04
24714;BMP280;12820;51.580;5.010;2022-07-29T09:29:43;101622.97;;;23.28
24714;BMP280;12820;51.580;5.010;2022-07-29T09:34:46;101620.75;;;23.37
24714;BMP280;12820;51.580;5.010;2022-07-29T09:39:48;101622.97;;;23.43
24714;BMP280;12820;51.580;5.010;2022-07-29T09:44:50;101624.06;;;23.54
24714;BMP280;12820;51.580;5.010;2022-07-29T09:49:57;101625.03;;;23.67
24714;BMP280;12820;51.580;5.010;2022-07-29T09:55:08;101623.47;;;23.80
24714;BMP280;12820;51.580;5.010;2022-07-29T10:00:18;101624.47;;;23.92
24714;BMP280;12820;51.580;5.010;2022-07-29T10:05:26;101613.59;;;24.03
24714;BMP280;12820;51.580;5.010;2022-07-29T10:10:40;101617.06;;;24.17
24714;BMP280;12820;51.580;5.010;2022-07-29T10:15:44;101607.94;;;24.40
24714;BMP280;12820;51.580;5.010;2022-07-29T10:20:48;101600.28;;;24.67
24714;BMP280;12820;51.580;5.010;2022-07-29T10:25:50;101605.47;;;24.94
24714;BMP280;12820;51.580;5.010;2022-07-29T10:31:00;101594.59;;;25.17
24714;BMP280;12820;51.580;5.010;2022-07-29T10:41:59;101593.59;;;25.72
24714;BMP280;12820;51.580;5.010;2022-07-29T10:47:04;101597.09;;;25.97
24714;BMP280;12820;51.580;5.010;2022-07-29T10:52:08;101599.94;;;26.19
24714;BMP280;12820;51.580;5.010;2022-07-29T10:57:28;101590.22;;;26.48
24714;BMP280;12820;51.580;5.010;2022-07-29T11:02:51;101585.56;;;26.77
24714;BMP280;12820;51.580;5.010;2022-07-29T11:24:18;101590.06;;;27.92
24714;BMP280;12820;51.580;5.010;2022-07-29T11:29:31;101578.75;;;28.16
24714;BMP280;12820;51.580;5.010;2022-07-29T11:34:41;101577.34;;;28.46
24714;BMP280;12820;51.580;5.010;2022-07-29T11:45:21;101575.03;;;28.96
24714;BMP280;12820;51.580;5.010;2022-07-29T11:50:44;101572.19;;;29.21
24714;BMP280;12820;51.580;5.010;2022-07-29T11:55:54;101573.13;;;29.41
24714;BMP280;12820;51.580;5.010;2022-07-29T12:00:59;101575.56;;;29.64
24714;BMP280;12820;51.580;5.010;2022-07-29T12:06:13;101581.00;;;29.81
24714;BMP280;12820;51.580;5.010;2022-07-29T12:11:18;101577.41;;;30.03
24714;BMP280;12820;51.580;5.010;2022-07-29T12:16:22;101583.63;;;30.32
24714;BMP280;12820;51.580;5.010;2022-07-29T12:21:44;101587.94;;;30.42
24714;BMP280;12820;51.580;5.010;2022-07-29T12:27:00;101580.94;;;30.53
24714;BMP280;12820;51.580;5.010;2022-07-29T12:32:03;101582.53;;;30.45
24714;BMP280;12820;51.580;5.010;2022-07-29T12:37:16;101574.69;;;30.65
24714;BMP280;12820;51.580;5.010;2022-07-29T12:42:18;101564.63;;;30.91
24714;BMP280;12820;51.580;5.010;2022-07-29T12:47:22;101568.94;;;31.20
24714;BMP280;12820;51.580;5.010;2022-07-29T12:52:32;101568.75;;;31.50
24714;BMP280;12820;51.580;5.010;2022-07-29T12:57:49;101567.84;;;31.88
24714;BMP280;12820;51.580;5.010;2022-07-29T13:02:55;101557.28;;;32.27
24714;BMP280;12820;51.580;5.010;2022-07-29T13:08:13;101549.28;;;32.56
24714;BMP280;12820;51.580;5.010;2022-07-29T13:13:23;101555.03;;;32.50
24714;BMP280;12820;51.580;5.010;2022-07-29T13:18:33;101562.88;;;32.85
24714;BMP280;12820;51.580;5.010;2022-07-29T13:23:37;101557.94;;;33.18
24714;BMP280;12820;51.580;5.010;2022-07-29T13:29:04;101557.72;;;33.55
24714;BMP280;12820;51.580;5.010;2022-07-29T13:34:06;101560.34;;;33.89
24714;BMP280;12820;51.580;5.010;2022-07-29T13:39:08;101554.66;;;34.10
24714;BMP280;12820;51.580;5.010;2022-07-29T13:44:15;101566.78;;;34.36
24714;BMP280;12820;51.580;5.010;2022-07-29T13:49:17;101549.47;;;34.60
24714;BMP280;12820;51.580;5.010;2022-07-29T13:54:19;101551.13;;;34.86
24714;BMP280;12820;51.580;5.010;2022-07-29T13:59:21;101555.13;;;35.05
24714;BMP280;12820;51.580;5.010;2022-07-29T14:04:24;101544.25;;;35.25
24714;BMP280;12820;51.580;5.010;2022-07-29T14:09:26;101550.00;;;35.36
24714;BMP280;12820;51.580;5.010;2022-07-29T14:14:28;101544.13;;;35.50
24714;BMP280;12820;51.580;5.010;2022-07-29T14:19:31;101539.38;;;35.46
24714;BMP280;12820;51.580;5.010;2022-07-29T14:24:37;101553.47;;;35.60
24714;BMP280;12820;51.580;5.010;2022-07-29T14:29:39;101538.78;;;35.67
24714;BMP280;12820;51.580;5.010;2022-07-29T14:34:41;101535.63;;;35.48
24714;BMP280;12820;51.580;5.010;2022-07-29T14:39:44;101531.69;;;35.29
24714;BMP280;12820;51.580;5.010;2022-07-29T14:44:46;101540.34;;;35.37
24714;BMP280;12820;51.580;5.010;2022-07-29T14:49:50;101530.72;;;35.53
24714;BMP280;12820;51.580;5.010;2022-07-29T14:54:52;101549.94;;;35.21
24714;BMP280;12820;51.580;5.010;2022-07-29T14:59:54;101552.09;;;34.60
24714;BMP280;12820;51.580;5.010;2022-07-29T15:04:56;101548.06;;;34.24
24714;BMP280;12820;51.580;5.010;2022-07-29T15:09:58;101536.56;;;33.75
24714;BMP280;12820;51.580;5.010;2022-07-29T15:15:00;101538.19;;;33.16
24714;BMP280;12820;51.580;5.010;2022-07-29T15:20:04;101536.91;;;32.67
24714;BMP280;12820;51.580;5.010;2022-07-29T15:25:07;101541.09;;;32.32
24714;BMP280;12820;51.580;5.010;2022-07-29T15:30:10;101538.69;;;31.94
24714;BMP280;12820;51.580;5.010;2022-07-29T15:35:35;101537.72;;;31.86
24714;BMP280;12820;51.580;5.010;2022-07-29T15:40:41;101526.31;;;32.33
24714;BMP280;12820;51.580;5.010;2022-07-29T15:45:45;101529.22;;;32.66
24714;BMP280;12820;51.580;5.010;2022-07-29T15:51:07;101536.00;;;32.94
24714;BMP280;12820;51.580;5.010;2022-07-29T15:56:09;101533.28;;;33.39
24714;BMP280;12820;51.580;5.010;2022-07-29T16:01:11;101530.88;;;33.79
24714;BMP280;12820;51.580;5.010;2022-07-29T16:06:13;101537.81;;;34.05
24714;BMP280;12820;51.580;5.010;2022-07-29T16:11:16;101527.84;;;34.26
24714;BMP280;12820;51.580;5.010;2022-07-29T16:16:18;101529.00;;;34.48
24714;BMP280;12820;51.580;5.010;2022-07-29T16:21:20;101524.56;;;34.73
24714;BMP280;12820;51.580;5.010;2022-07-29T16:26:24;101526.72;;;34.78
24714;BMP280;12820;51.580;5.010;2022-07-29T16:31:26;101532.16;;;34.84
24714;BMP280;12820;51.580;5.010;2022-07-29T16:36:29;101528.25;;;34.88
24714;BMP280;12820;51.580;5.010;2022-07-29T16:41:31;101540.06;;;34.67
24714;BMP280;12820;51.580;5.010;2022-07-29T16:46:33;101533.25;;;34.49
24714;BMP280;12820;51.580;5.010;2022-07-29T16:51:39;101528.59;;;34.35
24714;BMP280;12820;51.580;5.010;2022-07-29T16:56:43;101530.44;;;34.26
24714;BMP280;12820;51.580;5.010;2022-07-29T17:01:45;101529.53;;;34.10
24714;BMP280;12820;51.580;5.010;2022-07-29T17:06:47;101540.00;;;33.92
24714;BMP280;12820;51.580;5.010;2022-07-29T17:11:51;101543.19;;;33.70
24714;BMP280;12820;51.580;5.010;2022-07-29T17:16:58;101543.09;;;33.45
24714;BMP280;12820;51.580;5.010;2022-07-29T17:22:04;101543.78;;;33.20
24714;BMP280;12820;51.580;5.010;2022-07-29T17:27:19;101545.88;;;32.91
24714;BMP280;12820;51.580;5.010;2022-07-29T17:32:21;101546.50;;;32.66
24714;BMP280;12820;51.580;5.010;2022-07-29T17:37:23;101570.03;;;32.39
24714;BMP280;12820;51.580;5.010;2022-07-29T17:42:25;101573.72;;;32.09
24714;BMP280;12820;51.580;5.010;2022-07-29T17:47:27;101568.50;;;31.72
24714;BMP280;12820;51.580;5.010;2022-07-29T17:52:29;101571.16;;;31.33
24714;BMP280;12820;51.580;5.010;2022-07-29T17:57:32;101567.13;;;31.02
24714;BMP280;12820;51.580;5.010;2022-07-29T18:02:37;101569.53;;;30.74
24714;BMP280;12820;51.580;5.010;2022-07-29T18:07:39;101570.38;;;30.45
24714;BMP280;12820;51.580;5.010;2022-07-29T18:12:41;101572.16;;;30.14
24714;BMP280;12820;51.580;5.010;2022-07-29T18:17:43;101577.25;;;29.85
24714;BMP280;12820;51.580;5.010;2022-07-29T18:22:59;101575.94;;;29.49
24714;BMP280;12820;51.580;5.010;2022-07-29T18:28:02;101571.75;;;29.16
24714;BMP280;12820;51.580;5.010;2022-07-29T18:33:05;101579.28;;;28.87
24714;BMP280;12820;51.580;5.010;2022-07-29T18:38:23;101592.16;;;28.54
24714;BMP280;12820;51.580;5.010;2022-07-29T18:43:25;101580.59;;;28.26
24714;BMP280;12820;51.580;5.010;2022-07-29T18:48:31;101591.16;;;28.00
24714;BMP280;12820;51.580;5.010;2022-07-29T18:53:35;101593.25;;;27.73
24714;BMP280;12820;51.580;5.010;2022-07-29T18:58:40;101607.06;;;27.49
24714;BMP280;12820;51.580;5.010;2022-07-29T19:03:42;101608.69;;;27.27
24714;BMP280;12820;51.580;5.010;2022-07-29T19:08:44;101615.50;;;27.04
24714;BMP280;12820;51.580;5.010;2022-07-29T19:13:46;101623.88;;;26.83
24714;BMP280;12820;51.580;5.010;2022-07-29T19:18:48;101629.53;;;26.63
24714;BMP280;12820;51.580;5.010;2022-07-29T19:23:50;101631.59;;;26.46
24714;BMP280;12820;51.580;5.010;2022-07-29T19:29:13;101642.34;;;26.27
24714;BMP280;12820;51.580;5.010;2022-07-29T19:34:16;101646.91;;;26.10
24714;BMP280;12820;51.580;5.010;2022-07-29T19:39:18;101657.50;;;25.93
24714;BMP280;12820;51.580;5.010;2022-07-29T19:44:36;101674.16;;;25.74
24714;BMP280;12820;51.580;5.010;2022-07-29T19:49:38;101672.72;;;25.57
24714;BMP280;12820;51.580;5.010;2022-07-29T19:54:41;101687.56;;;25.40
24714;BMP280;12820;51.580;5.010;2022-07-29T19:59:43;101692.97;;;25.22
24714;BMP280;12820;51.580;5.010;2022-07-29T20:04:45;101699.84;;;25.08
24714;BMP280;12820;51.580;5.010;2022-07-29T20:09:47;101705.81;;;24.94
24714;BMP280;12820;51.580;5.010;2022-07-29T20:14:50;101710.09;;;24.80
24714;BMP280;12820;51.580;5.010;2022-07-29T20:19:52;101694.72;;;24.65
24714;BMP280;12820;51.580;5.010;2022-07-29T20:24:56;101707.41;;;24.53
24714;BMP280;12820;51.580;5.010;2022-07-29T20:29:58;101703.03;;;24.40
24714;BMP280;12820;51.580;5.010;2022-07-29T20:35:00;101711.44;;;24.28
24714;BMP280;12820;51.580;5.010;2022-07-29T20:40:05;101712.94;;;24.17
24714;BMP280;12820;51.580;5.010;2022-07-29T20:45:13;101720.47;;;24.05
24714;BMP280;12820;51.580;5.010;2022-07-29T20:50:20;101715.13;;;23.94
24714;BMP280;12820;51.580;5.010;2022-07-29T20:55:25;101713.16;;;23.83
24714;BMP280;12820;51.580;5.010;2022-07-29T21:00:27;101712.00;;;23.73
24714;BMP280;12820;51.580;5.010;2022-07-29T21:05:29;101720.38;;;23.61
24714;BMP280;12820;51.580;5.010;2022-07-29T21:10:31;101718.28;;;23.52
24714;BMP280;12820;51.580;5.010;2022-07-29T21:15:33;101722.25;;;23.43
24714;BMP280;12820;51.580;5.010;2022-07-29T21:20:36;101725.25;;;23.34
24714;BMP280;12820;51.580;5.010;2022-07-29T21:25:38;101724.06;;;23.24
24714;BMP280;12820;51.580;5.010;2022-07-29T21:30:40;101728.03;;;23.15
24714;BMP280;12820;51.580;5.010;2022-07-29T21:35:42;101731.97;;;23.05
24714;BMP280;12820;51.580;5.010;2022-07-29T21:41:04;101727.25;;;22.96
24714;BMP280;12820;51.580;5.010;2022-07-29T21:46:06;101721.75;;;22.87
24714;BMP280;12820;51.580;5.010;2022-07-29T21:51:11;101726.44;;;22.79
24714;BMP280;12820;51.580;5.010;2022-07-29T21:56:13;101733.75;;;22.70
24714;BMP280;12820;51.580;5.010;2022-07-29T22:01:18;101723.06;;;22.62
24714;BMP280;12820;51.580;5.010;2022-07-29T22:06:20;101731.94;;;22.55
24714;BMP280;12820;51.580;5.010;2022-07-29T22:11:23;101734.84;;;22.48
24714;BMP280;12820;51.580;5.010;2022-07-29T22:16:25;101731.75;;;22.42
24714;BMP280;12820;51.580;5.010;2022-07-29T22:21:27;101735.50;;;22.35
24714;BMP280;12820;51.580;5.010;2022-07-29T22:26:29;101728.13;;;22.29
24714;BMP280;12820;51.580;5.010;2022-07-29T22:31:31;101735.19;;;22.24
24714;BMP280;12820;51.580;5.010;2022-07-29T22:36:33;101742.31;;;22.18
24714;BMP280;12820;51.580;5.010;2022-07-29T22:41:35;101746.03;;;22.11
24714;BMP280;12820;51.580;5.010;2022-07-29T22:46:37;101754.94;;;22.04
24714;BMP280;12820;51.580;5.010;2022-07-29T22:51:39;101761.16;;;21.99
24714;BMP280;12820;51.580;5.010;2022-07-29T22:56:41;101765.72;;;21.92
24714;BMP280;12820;51.580;5.010;2022-07-29T23:01:43;101770.31;;;21.86
24714;BMP280;12820;51.580;5.010;2022-07-29T23:06:45;101772.22;;;21.81
24714;BMP280;12820;51.580;5.010;2022-07-29T23:11:47;101771.69;;;21.73
24714;BMP280;12820;51.580;5.010;2022-07-29T23:16:49;101773.72;;;21.67
24714;BMP280;12820;51.580;5.010;2022-07-29T23:21:52;101774.81;;;21.62
24714;BMP280;12820;51.580;5.010;2022-07-29T23:26:54;101766.63;;;21.54
24714;BMP280;12820;51.580;5.010;2022-07-29T23:31:56;101756.72;;;21.47
24714;BMP280;12820;51.580;5.010;2022-07-29T23:36:58;101756.16;;;21.40
24714;BMP280;12820;51.580;5.010;2022-07-29T23:42:01;101753.84;;;21.35
24714;BMP280;12820;51.580;5.010;2022-07-29T23:47:03;101763.53;;;21.28
24714;BMP280;12820;51.580;5.010;2022-07-29T23:52:05;101767.25;;;21.21
24714;BMP280;12820;51.580;5.010;2022-07-29T23:57:07;101765.78;;;21.16
